Latest Coastal Weather Observations for Proserpine

IDQ60701

Issued at 7:51 am EST Wednesday 5 August 2015 (issued every 10 minutes, with the page automatically refreshed every 10 minutes)

About coastal observations | Map of coastal stations | Coastal observations for QLD | Marine services | Other Formats
Station Details ID: 033247 Name: PROSERPINE AIRPORT Lat: -20.49 Lon: 148.56 Height: 19.7 m
Data from the previous 72 hours. | See also: Recent months at Proserpine
Date/Time
EST
Temp

°C
Wind Pressure Rain
since 9am
mm
Weather Cloud Vis
km
Sea
Height
m
Swell
Dir
 
Speed
knots
Gust
knots
hPa Trend Height
m
Period
s
Dir
05/07:30am 13.1 SSW 3 5 1018.3 - 0.0 - - 10 - - - -
05/07:00am 12.0 SE 5 6 1018.1 - 0.0 - - 10 - - - -
05/06:30am 11.2 SSW 5 5 1017.7 - 0.0 - - 10 - - - -
05/06:00am 12.0 SSW 3 4 1017.4 - 0.0 - - 10 - - - -
05/05:30am 12.6 SSW 4 5 1017.1 - 0.0 - - 10 - - - -
05/05:00am 12.5 SSW 6 7 1016.8 - 0.0 - - 10 - - - -
05/04:30am 12.8 SSW 5 6 1016.6 - 0.0 - - 10 - - - -
05/04:00am 13.3 SSW 5 6 1016.5 - 0.0 - - 10 - - - -
05/03:30am 14.1 SSW 7 8 1016.4 - 0.0 - Partly cloudy 10 - - - -
05/03:00am 14.4 SSW 7 8 1016.4 - 0.0 - Mostly clear 10 - - - -
05/02:30am 14.4 SSW 6 7 1016.5 - 0.0 - - 10 - - - -
05/02:00am 14.7 SSW 5 6 1016.6 - 0.0 - Partly cloudy 10 - - - -
05/01:30am 15.0 SSW 6 7 1016.8 - 0.0 - - 10 - - - -
05/01:00am 15.3 S 4 4 1016.9 - 0.0 - - 10 - - - -
05/12:30am 15.0 SSW 5 6 1017.0 - 0.0 - - 10 - - - -
05/12:00am 15.8 S 4 5 1016.9 - 0.0 - - 10 - - - -
 
Date/Time
EST
Temp

°C
Wind Pressure Rain
since 9am
mm
Weather Cloud Vis
km
Sea
Height
m
Swell
Dir
 
Speed
knots
Gust
knots
hPa Trend Height
m
Period
s
Dir
04/11:30pm 16.5 S 4 5 1017.0 - 0.0 - - 10 - - - -
04/11:00pm 17.5 S 1 4 1017.0 - 0.0 - - 10 - - - -
04/10:30pm 18.7 S 2 5 1017.0 - 0.0 - Partly cloudy 10 - - - -
04/10:00pm 19.5 SSE 1 3 1017.0 - 0.0 - Partly cloudy 10 - - - -
04/09:30pm 19.7 SE 5 7 1017.1 - 0.0 - Partly cloudy 10 - - - -
04/09:00pm 19.8 ESE 9 11 1016.9 - 0.0 - Mostly cloudy 10 - - - -
04/08:30pm 19.8 SSE 9 12 1016.9 - 0.0 - Partly cloudy 10 - - - -
04/08:00pm 19.8 SE 8 12 1016.6 - 0.0 - Partly cloudy 10 - - - -
04/07:30pm 19.8 SSE 7 8 1016.3 - 0.0 - Partly cloudy 10 - - - -
04/07:00pm 19.9 SE 7 9 1015.9 - 0.0 - Partly cloudy 10 - - - -
04/06:30pm 19.5 ESE 5 7 1015.5 - 0.0 - Partly cloudy 10 - - - -
04/06:00pm 19.9 SE 8 9 1015.0 - 0.0 - - 10 - - - -
04/05:30pm 20.7 ESE 9 11 1014.8 - 0.0 - - 10 - - - -
04/05:00pm 22.0 SE 11 13 1014.6 - 0.0 - - 10 - - - -
04/04:30pm 23.7 ESE 10 13 1014.2 - 0.0 - - 10 - - - -
04/04:00pm 24.8 ESE 11 15 1014.1 - 0.0 - - 10 - - - -
04/03:30pm 25.4 ESE 11 14 1014.3 - 0.0 - - 10 - - - -
04/03:00pm 25.8 ESE 10 15 1014.4 - 0.0 - - 10 - - - -
04/02:30pm 26.4 E 11 14 1014.8 - 0.0 - - 10 - - - -
04/02:00pm 25.6 E 9 14 1015.2 - 0.0 - - 10 - - - -
04/01:30pm 25.5 ESE 8 15 1015.7 - 0.0 - - 10 - - - -
04/01:00pm 25.7 E 9 14 1016.1 - 0.0 - - 10 - - - -
04/12:30pm 24.7 ESE 8 12 1016.7 - 0.0 - - 10 - - - -
04/12:00pm 25.2 E 9 12 1017.3 - 0.0 - - 10 - - - -
04/11:30am 24.5 SE 7 11 1017.6 - 0.0 - - 10 - - - -
04/11:00am 23.5 ENE 6 9 1018.2 - 0.0 - - 10 - - - -
04/10:30am 22.6 S 3 5 1018.5 - 0.0 - Partly cloudy 10 - - - -
04/10:00am 21.5 ENE 4 7 1018.8 - 0.0 - - 10 - - - -
04/09:33am 20.4 ENE 5 7 1018.9 - 0.0 - Partly cloudy 10 - - - -
04/09:30am 20.1 ENE 5 7 1018.8 - 0.0 - Partly cloudy 10 - - - -
04/09:00am 18.1 ESE 2 5 1018.9 - 0.0 - Mostly cloudy 10 - - - -
04/08:35am 16.1 S 4 6 1018.9 - 0.0 - Cloudy 10 - - - -
04/08:30am 15.6 S 5 6 1018.8 - 0.0 - Cloudy 10 - - - -
04/08:00am 15.6 SE 5 7 1018.5 - 0.0 - Cloudy 0.6 - - - -
04/07:30am 14.6 NNE 3 5 1017.7 - 0.0 - Cloudy 0.1 - - - -
04/07:00am 14.6 NW 3 4 1017.2 - 0.0 - Cloudy 0.5 - - - -
04/06:30am 15.1 N 2 3 1017.0 - 0.0 - Cloudy 0.2 - - - -
04/06:00am 15.4 CALM 0 0 1016.8 - 0.0 - Cloudy 1 - - - -
04/05:30am 15.1 SW 4 5 1016.6 - 0.0 - Cloudy 3 - - - -
04/05:01am 14.5 SW 5 7 1016.4 - 0.0 - Cloudy 6 - - - -
04/05:00am 14.5 SW 5 7 1016.4 - 0.0 - Cloudy 8 - - - -
04/04:56am 14.3 SW 5 7 1016.4 - 0.0 - Cloudy 10 - - - -
04/04:53am 14.2 SW 6 7 1016.4 - 0.0 - Cloudy 10 - - - -
04/04:49am 14.1 SW 6 7 1016.4 - 0.0 - Cloudy 10 - - - -
04/04:30am 13.9 SW 6 7 1016.3 - 0.0 - Cloudy 0.3 - - - -
04/04:14am 13.5 SSW 7 8 1016.3 - 0.0 - Cloudy 6 - - - -
04/04:00am 11.9 SW 4 6 1016.3 - 0.0 - Cloudy 10 - - - -
04/03:42am 12.0 SW 5 5 1016.3 - 0.0 - Partly cloudy 10 - - - -
04/03:30am 11.9 SW 4 5 1016.4 - 0.0 - Partly cloudy 10 - - - -
04/03:00am 11.6 SW 5 6 1016.4 - 0.0 - - 10 - - - -
04/02:30am 11.6 W 2 3 1016.3 - 0.0 - Partly cloudy 10 - - - -
04/02:00am 12.2 CALM 0 0 1016.4 - 0.0 - - 10 - - - -
04/01:30am 11.8 CALM 0 0 1016.8 - 0.0 - - 10 - - - -
04/01:00am 12.1 CALM 0 0 1017.1 - 0.0 - - 10 - - - -
04/12:52am 12.4 CALM 0 0 1017.2 - 0.0 - - 10 - - - -
04/12:37am 12.6 CALM 0 0 1017.3 - 0.0 - - 6 - - - -
04/12:30am 12.6 CALM 0 0 1017.3 - 0.0 - - 10 - - - -
04/12:00am 13.3 CALM 0 0 1017.6 - 0.0 - - 10 - - - -
 
Date/Time
EST
Temp

°C
Wind Pressure Rain
since 9am
mm
Weather Cloud Vis
km
Sea
Height
m
Swell
Dir
 
Speed
knots
Gust
knots
hPa Trend Height
m
Period
s
Dir
03/11:30pm 13.3 CALM 0 0 1017.7 - 0.0 - - 10 - - - -
03/11:00pm 14.2 CALM 0 0 1017.9 - 0.0 - - 10 - - - -
03/10:30pm 14.4 CALM 0 0 1018.0 - 0.0 - - 10 - - - -
03/10:00pm 15.9 SSW 3 3 1018.0 - 0.0 - - 10 - - - -
03/09:30pm 16.4 SW 4 5 1018.0 - 0.0 - - 10 - - - -
03/09:00pm 16.6 SSW 4 4 1018.1 - 0.0 - - 10 - - - -
03/08:30pm 16.5 SW 3 4 1018.0 - 0.0 - - 10 - - - -
03/08:00pm 17.0 CALM 0 0 1017.9 - 0.0 - - 10 - - - -
03/07:30pm 18.3 WNW 2 4 1017.7 - 0.0 - - 10 - - - -
03/07:00pm 19.2 N 3 4 1017.5 - 0.0 - - 10 - - - -
03/06:30pm 20.7 CALM 0 0 1017.1 - 0.0 - - 10 - - - -
03/06:00pm 22.1 NE 5 8 1016.7 - 0.0 - - 10 - - - -
03/05:30pm 23.9 NE 5 8 1016.4 - 0.0 - - 10 - - - -
03/05:00pm 25.3 E 7 10 1016.2 - 0.0 - - 10 - - - -
03/04:30pm 26.0 E 8 10 1016.2 - 0.0 - - 10 - - - -
03/04:00pm 26.4 ENE 8 12 1016.2 - 0.0 - - 10 - - - -
03/03:30pm 26.4 ENE 9 13 1016.2 - 0.0 - - 10 - - - -
03/03:00pm 26.5 NE 10 15 1016.3 - 0.0 - - 10 - - - -
03/02:30pm 27.2 E 9 15 1016.4 - 0.0 - - 10 - - - -
03/02:00pm 27.0 E 8 14 1016.7 - 0.0 - - 10 - - - -
03/01:30pm 26.9 ESE 7 11 1017.2 - 0.0 - - 10 - - - -
03/01:00pm 26.6 ESE 8 13 1017.5 - 0.0 - - 10 - - - -
03/12:30pm 26.3 ESE 8 13 1018.0 - 0.0 - - 10 - - - -
03/12:00pm 26.0 NNE 6 10 1018.4 - 0.0 - - 10 - - - -
03/11:30am 25.8 ENE 5 11 1018.9 - 0.0 - Partly cloudy 10 - - - -
03/11:00am 25.1 ENE 4 8 1019.5 - 0.0 - - 10 - - - -
03/10:30am 23.7 ENE 5 7 1020.1 - 0.0 - - 10 - - - -
03/10:00am 23.4 ESE 3 7 1020.4 - 0.0 - - 10 - - - -
03/09:30am 22.3 SSE 2 6 1020.7 - 0.0 - - 10 - - - -
03/09:00am 20.7 SSE 3 5 1020.7 - 0.0 - Mostly clear 10 - - - -
03/08:30am 18.5 S 3 4 1020.5 - 0.0 - Partly cloudy 10 - - - -
03/08:00am 16.5 SW 2 3 1020.3 - 0.0 - - 10 - - - -
03/07:30am 14.6 CALM 0 0 1020.0 - 0.0 - - 10 - - - -
03/07:00am 12.9 WSW 3 4 1019.8 - 0.0 - - 10 - - - -
03/06:30am 12.5 CALM 0 0 1019.6 - 0.0 - Partly cloudy 10 - - - -
03/06:16am 12.4 CALM 0 0 1019.5 - 0.0 - Partly cloudy 10 - - - -
03/06:00am 12.6 CALM 0 0 1019.4 - 0.0 - Cloudy 10 - - - -
03/05:48am 12.3 CALM 0 0 1019.4 - 0.0 - Partly cloudy 10 - - - -
03/05:42am 12.0 CALM 0 0 1019.3 - 0.0 - Partly cloudy 10 - - - -
03/05:30am 12.6 CALM 0 0 1019.2 - 0.0 - Partly cloudy 6 - - - -
03/05:17am 13.5 CALM 0 0 1019.3 - 0.0 - - 6 - - - -
03/05:00am 13.4 SW 3 4 1019.2 - 0.0 - - 10 - - - -
03/04:30am 13.6 SSW 4 4 1018.9 - 0.0 - - 10 - - - -
03/04:00am 13.7 SW 4 5 1018.8 - 0.0 - - 10 - - - -
03/03:30am 13.9 SW 4 5 1018.8 - 0.0 - - 10 - - - -
03/03:04am 14.5 SSW 3 4 1019.0 - 0.0 - Partly cloudy 10 - - - -
03/03:00am 14.6 SSW 3 4 1019.0 - 0.0 - Mostly clear 10 - - - -
03/02:43am 14.8 SSW 1 5 1019.2 - 0.0 - Partly cloudy 10 - - - -
03/02:30am 14.7 SSW 5 6 1019.3 - 0.0 - Partly cloudy 10 - - - -
03/02:00am 14.5 SW 4 5 1019.4 - 0.0 - - 10 - - - -
03/01:40am 14.8 SW 5 5 1019.6 - 0.0 - Partly cloudy 10 - - - -
03/01:30am 15.0 SW 5 5 1019.7 - 0.0 - Partly cloudy 10 - - - -
03/01:00am 15.4 SSW 4 5 1019.9 - 0.0 - Partly cloudy 10 - - - -
03/12:30am 15.5 SSW 3 4 1020.1 - 0.0 - Partly cloudy 10 - - - -
03/12:21am 15.3 SSW 3 5 1020.2 - 0.0 - Partly cloudy 10 - - - -
03/12:00am 15.1 SW 4 5 1020.4 - 0.0 - - 10 - - - -
 
Date/Time
EST
Temp

°C
Wind Pressure Rain
since 9am
mm
Weather Cloud Vis
km
Sea
Height
m
Swell
Dir
 
Speed
knots
Gust
knots
hPa Trend Height
m
Period
s
Dir
02/11:30pm 15.8 SW 1 3 1020.6 - 0.0 - - 10 - - - -
02/11:03pm 16.2 SSW 3 5 1020.7 - 0.0 - Partly cloudy 10 - - - -
02/11:00pm 16.4 SSW 3 4 1020.7 - 0.0 - Partly cloudy 10 - - - -
02/10:30pm 16.6 SSW 4 5 1020.9 - 0.0 - Partly cloudy 10 - - - -
02/10:22pm 16.4 SSW 1 4 1020.9 - 0.0 - Partly cloudy 10 - - - -
02/10:00pm 16.0 SSW 4 5 1020.8 - 0.0 - - 10 - - - -
02/09:30pm 16.2 S 5 5 1020.7 - 0.0 - - 10 - - - -
02/09:00pm 16.5 S 4 5 1020.7 - 0.0 - Mostly clear 10 - - - -
02/08:30pm 16.7 SSW 5 6 1020.5 - 0.0 - - 10 - - - -
02/08:00pm 17.1 SSW 5 5 1020.3 - 0.0 - - 10 - - - -
02/07:30pm 17.4 S 5 6 1020.0 - 0.0 - - 10 - - - -
02/07:00pm 18.2 SSE 5 5 1019.8 - 0.0 - - 10 - - - -
02/06:30pm 18.9 E 5 5 1019.6 - 0.0 - - 10 - - - -
02/06:00pm 20.0 ESE 5 7 1019.5 - 0.0 - - 10 - - - -
02/05:30pm 21.2 ESE 8 11 1019.5 - 0.0 - - 10 - - - -
02/05:00pm 22.5 E 11 15 1019.3 - 0.0 - - 10 - - - -
02/04:30pm 23.6 E 10 15 1019.1 - 0.0 - - 10 - - - -
02/04:00pm 24.1 E 11 15 1019.2 - 0.0 - - 10 - - - -
02/03:30pm 24.5 ESE 11 15 1019.2 - 0.0 - - 10 - - - -
02/03:00pm 24.9 ESE 11 15 1019.3 - 0.0 - - 10 - - - -
02/02:30pm 24.9 ESE 11 15 1019.4 - 0.0 - - 10 - - - -
02/02:00pm 24.5 ESE 11 16 1019.6 - 0.0 - - 10 - - - -
02/01:30pm 24.7 ESE 11 16 1020.0 - 0.0 - Partly cloudy 10 - - - -
02/01:00pm 25.8 SE 10 16 1020.5 - 0.0 - - 10 - - - -
02/12:30pm 25.5 ESE 9 14 1020.9 - 0.0 - Partly cloudy 10 - - - -
02/12:00pm 24.8 ESE 8 12 1021.4 - 0.0 - Mostly clear 10 - - - -
02/11:30am 24.1 ESE 9 11 1021.8 - 0.0 - Partly cloudy 10 - - - -
02/11:00am 24.8 ESE 9 15 1021.9 - 0.0 - Partly cloudy 10 - - - -
02/10:30am 23.7 SE 8 11 1022.2 - 0.0 - - 10 - - - -
02/10:00am 23.7 ESE 11 16 1022.5 - 0.0 - - 10 - - - -
02/09:30am 23.0 ESE 11 16 1022.6 - 0.0 - - 10 - - - -
02/09:00am 21.7 SSE 8 11 1022.5 - 0.0 - Mostly clear 10 - - - -
02/08:30am 19.4 SSE 6 8 1022.3 - 0.0 - Partly cloudy 10 - - - -
02/08:00am 17.5 SSE 3 5 1022.0 - 0.0 - Partly cloudy 10 - - - -

Other Formats:

Comma delimited format used in spreadsheet applications
http://www.bom.gov.au/fwo/IDQ60701/IDQ60701.94365.axf

JavaScript Object Notation format (JSON) in row-major order
http://www.bom.gov.au/fwo/IDQ60701/IDQ60701.94365.json